Time;durP1;ratioP1;P1;durP2;ratioP2;P2;SDS_P1;SDS_P2;PMS_P1;PMS_P2;Temp;Humidity;BMP_temperature;BMP_pressure;BME280_temperature;BME280_humidity;BME280_pressure;Samples;Min_cycle;Max_cycle;Signal;HPM_P1;HPM_P2
2022/12/13 00:00:13;;;;;;;35.58;20.33;;;-1.70;99.90;;;;;;2050021;28;20071;-69
2022/12/13 00:01:16;;;;;;;39.30;22.25;;;-1.70;99.90;;;;;;2054020;28;20039;-70
2022/12/13 00:02:17;;;;;;;40.42;21.70;;;-1.70;99.90;;;;;;2057631;28;20115;-69
2022/12/13 00:03:18;;;;;;;37.42;20.95;;;-1.70;99.90;;;;;;2050305;28;20039;-70
2022/12/13 00:04:20;;;;;;;38.47;22.15;;;-1.70;99.90;;;;;;2058415;28;20190;-70
2022/12/13 00:05:21;;;;;;;37.75;21.48;;;-1.70;99.90;;;;;;2059786;28;20049;-69
2022/12/13 00:06:24;;;;;;;36.10;21.00;;;-1.70;99.90;;;;;;2057295;28;20709;-70
2022/12/13 00:07:25;;;;;;;35.47;20.92;;;-1.70;99.90;;;;;;2064992;28;20224;-69
2022/12/13 00:08:26;;;;;;;38.35;21.83;;;-1.70;99.90;;;;;;2058487;28;20114;-69
2022/12/13 00:09:27;;;;;;;36.70;21.83;;;-1.70;99.90;;;;;;2058814;28;20050;-69
2022/12/13 00:10:27;;;;;;;35.15;20.58;;;-1.70;99.90;;;;;;2066669;28;20023;-70
2022/12/13 00:11:28;;;;;;;35.72;20.38;;;-1.70;99.90;;;;;;2066574;28;20104;-70
2022/12/13 00:12:30;;;;;;;36.67;20.25;;;-1.70;99.90;;;;;;2059366;28;20134;-69
2022/12/13 00:13:31;;;;;;;35.72;20.55;;;-1.70;99.90;;;;;;2059975;28;20130;-71
2022/12/13 00:14:32;;;;;;;35.75;20.30;;;-1.70;99.90;;;;;;2067152;28;20018;-69
2022/12/13 00:15:33;;;;;;;35.25;20.30;;;-1.70;99.90;;;;;;2068483;28;20473;-69
2022/12/13 00:16:34;;;;;;;33.80;19.13;;;-1.70;99.90;;;;;;2060106;28;20062;-70
2022/12/13 00:17:34;;;;;;;35.42;20.50;;;-1.70;99.90;;;;;;2059495;28;20054;-70
2022/12/13 00:18:35;;;;;;;34.65;20.25;;;-1.70;99.90;;;;;;2058957;28;20054;-70
2022/12/13 00:19:36;;;;;;;36.05;20.80;;;-1.70;99.90;;;;;;2058267;28;20034;-70
2022/12/13 00:20:41;;;;;;;34.70;19.17;;;-1.70;99.90;;;;;;2058859;28;20049;-69
2022/12/13 00:21:42;;;;;;;34.58;19.95;;;-1.70;99.90;;;;;;2057357;28;20035;-70
2022/12/13 00:22:43;;;;;;;33.47;19.05;;;-1.70;99.90;;;;;;2049905;28;20046;-68
2022/12/13 00:23:44;;;;;;;34.50;19.77;;;-1.70;99.90;;;;;;2049270;28;20031;-69
2022/12/13 00:24:46;;;;;;;31.70;19.08;;;-1.70;99.90;;;;;;2049482;29;20486;-70
2022/12/13 00:25:46;;;;;;;35.45;19.95;;;-1.70;99.90;;;;;;2049171;29;20039;-70
2022/12/13 00:26:47;;;;;;;35.22;20.30;;;-1.70;99.90;;;;;;2050340;28;20468;-70
2022/12/13 00:27:48;;;;;;;34.70;20.05;;;-1.60;99.90;;;;;;2050255;28;20039;-70
2022/12/13 00:28:50;;;;;;;33.05;18.95;;;-1.60;99.90;;;;;;2050238;29;20062;-69
2022/12/13 00:29:50;;;;;;;32.95;18.85;;;-1.60;99.90;;;;;;2049591;29;20027;-70
2022/12/13 00:30:59;;;;;;;33.63;19.70;;;-1.70;99.90;;;;;;2050156;28;20031;-69
2022/12/13 00:32:00;;;;;;;34.10;19.63;;;-1.70;99.90;;;;;;2049648;29;20170;-70
2022/12/13 00:33:01;;;;;;;33.95;19.40;;;-1.70;99.90;;;;;;2049295;28;20024;-69
2022/12/13 00:34:02;;;;;;;33.90;19.20;;;-1.70;99.90;;;;;;2049061;28;20094;-70
2022/12/13 00:35:03;;;;;;;32.00;18.63;;;-1.70;99.90;;;;;;2049191;28;20111;-70
2022/12/13 00:36:05;;;;;;;31.77;18.20;;;-1.70;99.90;;;;;;2057970;28;20019;-70
2022/12/13 00:37:09;;;;;;;32.97;19.05;;;-1.70;99.90;;;;;;2065713;28;20178;-70
2022/12/13 00:38:10;;;;;;;34.45;19.70;;;-1.70;99.90;;;;;;2057323;28;20043;-70
2022/12/13 00:39:12;;;;;;;32.60;18.77;;;-1.70;99.90;;;;;;2056811;28;20062;-70
2022/12/13 00:40:13;;;;;;;32.13;18.58;;;-1.70;99.90;;;;;;2063805;28;20197;-70
2022/12/13 00:41:19;;;;;;;32.38;18.80;;;-1.70;99.90;;;;;;2057953;28;20018;-70
2022/12/13 00:42:19;;;;;;;32.53;19.40;;;-1.80;99.90;;;;;;2065686;28;20026;-67
2022/12/13 00:43:21;;;;;;;33.50;19.10;;;-1.70;99.90;;;;;;2069594;28;20060;-69
2022/12/13 00:44:22;;;;;;;32.03;19.20;;;-1.70;99.90;;;;;;2057751;28;20714;-70
2022/12/13 00:45:23;;;;;;;31.75;18.13;;;-1.70;99.90;;;;;;2057377;28;20104;-70
2022/12/13 00:46:24;;;;;;;29.77;17.67;;;-1.80;99.90;;;;;;2056612;28;20532;-70
2022/12/13 00:47:24;;;;;;;34.33;19.50;;;-1.80;99.90;;;;;;2056416;28;20040;-70
2022/12/13 00:48:25;;;;;;;33.45;19.52;;;-1.80;99.90;;;;;;2057337;28;20031;-69
2022/12/13 00:49:27;;;;;;;32.55;18.75;;;-1.70;99.90;;;;;;2056490;28;20027;-70
2022/12/13 00:50:27;;;;;;;31.77;18.63;;;-1.70;99.90;;;;;;2056828;28;20027;-69
2022/12/13 00:51:30;;;;;;;33.88;19.42;;;-1.70;99.90;;;;;;2059432;28;20031;-70
2022/12/13 00:52:33;;;;;;;33.30;19.02;;;-1.70;99.90;;;;;;2060681;28;20382;-70
2022/12/13 00:53:35;;;;;;;34.55;19.83;;;-1.70;99.90;;;;;;2060891;28;20046;-69
2022/12/13 00:54:35;;;;;;;33.33;19.65;;;-1.80;99.90;;;;;;2059028;28;20031;-71
2022/12/13 00:55:40;;;;;;;34.17;19.80;;;-1.70;99.90;;;;;;2058454;28;20113;-70
2022/12/13 00:56:41;;;;;;;32.25;18.98;;;-1.70;99.90;;;;;;2058971;28;20038;-70
2022/12/13 00:57:42;;;;;;;33.63;19.63;;;-1.70;99.90;;;;;;2057725;28;20057;-69
2022/12/13 00:58:42;;;;;;;31.08;18.40;;;-1.80;99.90;;;;;;2057089;28;20426;-69
2022/12/13 00:59:43;;;;;;;31.73;18.55;;;-1.70;99.90;;;;;;2057525;28;20628;-70
2022/12/13 01:00:45;;;;;;;32.90;18.63;;;-1.70;99.90;;;;;;2057540;28;20509;-70
2022/12/13 01:01:48;;;;;;;32.17;19.13;;;-1.70;99.90;;;;;;2056813;28;20031;-70
2022/12/13 01:02:51;;;;;;;31.90;17.95;;;-1.80;99.90;;;;;;2056344;28;20034;-70
2022/12/13 01:03:56;;;;;;;33.05;18.73;;;-1.80;99.90;;;;;;2056016;28;20038;-70
2022/12/13 01:04:57;;;;;;;33.28;18.65;;;-1.70;99.90;;;;;;2057174;28;20027;-71
2022/12/13 01:05:58;;;;;;;31.85;18.67;;;-1.70;99.90;;;;;;2059618;28;20026;-70
2022/12/13 01:07:00;;;;;;;32.97;18.48;;;-1.70;99.90;;;;;;2058786;28;20023;-70
2022/12/13 01:08:01;;;;;;;32.70;18.58;;;-1.70;99.90;;;;;;2058479;28;20035;-69
2022/12/13 01:09:03;;;;;;;32.28;18.48;;;-1.70;99.90;;;;;;2058759;28;20497;-70
2022/12/13 01:10:06;;;;;;;30.98;18.48;;;-1.70;99.90;;;;;;2057426;28;20038;-70
2022/12/13 01:11:07;;;;;;;30.70;17.58;;;-1.70;99.90;;;;;;2057122;28;20050;-69
2022/12/13 01:12:12;;;;;;;29.85;18.55;;;-1.70;99.90;;;;;;2056977;28;20074;-70
2022/12/13 01:13:13;;;;;;;29.00;17.55;;;-1.70;99.90;;;;;;2057119;28;20057;-70
2022/12/13 01:14:15;;;;;;;33.03;18.67;;;-1.70;99.90;;;;;;2057340;28;20046;-70
2022/12/13 01:15:16;;;;;;;33.13;18.73;;;-1.70;99.90;;;;;;2058051;28;20046;-69
2022/12/13 01:16:17;;;;;;;33.95;18.95;;;-1.70;99.90;;;;;;2060346;28;20138;-70
2022/12/13 01:17:18;;;;;;;32.00;18.90;;;-1.70;99.90;;;;;;2060654;28;20081;-70
2022/12/13 01:18:18;;;;;;;29.88;17.98;;;-1.70;99.90;;;;;;2067590;28;20030;-69
2022/12/13 01:19:19;;;;;;;34.72;19.40;;;-1.70;99.90;;;;;;2067347;28;20050;-70
2022/12/13 01:20:20;;;;;;;31.67;19.17;;;-1.70;99.90;;;;;;2060154;28;20038;-70
2022/12/13 01:21:20;;;;;;;32.17;19.02;;;-1.70;99.90;;;;;;2060760;28;20098;-70
2022/12/13 01:22:21;;;;;;;32.55;18.83;;;-1.70;99.90;;;;;;2067883;28;20066;-70
2022/12/13 01:23:22;;;;;;;33.10;19.85;;;-1.70;99.90;;;;;;2060333;28;20525;-70
2022/12/13 01:24:24;;;;;;;31.70;18.80;;;-1.70;99.90;;;;;;2059888;28;20035;-70
2022/12/13 01:25:25;;;;;;;32.15;18.42;;;-1.70;99.90;;;;;;2060306;28;20039;-70
2022/12/13 01:26:26;;;;;;;32.45;19.17;;;-1.70;99.90;;;;;;2061078;28;20035;-69
2022/12/13 01:27:26;;;;;;;34.17;19.65;;;-1.70;99.90;;;;;;2059933;28;20129;-70
2022/12/13 01:28:27;;;;;;;33.25;19.45;;;-1.70;99.90;;;;;;2060512;28;20034;-69
2022/12/13 01:29:28;;;;;;;33.38;18.65;;;-1.60;99.90;;;;;;2060167;28;20057;-70
2022/12/13 01:30:28;;;;;;;32.15;18.60;;;-1.60;99.90;;;;;;2060039;28;20481;-70
2022/12/13 01:31:29;;;;;;;33.10;19.63;;;-1.50;99.90;;;;;;2060146;28;20019;-70
2022/12/13 01:32:31;;;;;;;34.55;20.00;;;-1.50;99.90;;;;;;2060341;28;20049;-70
2022/12/13 01:33:33;;;;;;;33.63;19.80;;;-1.60;99.90;;;;;;2059948;28;20034;-70
2022/12/13 01:34:33;;;;;;;33.47;19.83;;;-1.60;99.90;;;;;;2059331;28;20050;-70
2022/12/13 01:35:34;;;;;;;33.00;19.27;;;-1.60;99.90;;;;;;2060399;28;20473;-70
2022/12/13 01:36:36;;;;;;;31.63;19.17;;;-1.60;99.90;;;;;;2060281;28;20023;-70
2022/12/13 01:37:36;;;;;;;30.65;18.20;;;-1.60;99.90;;;;;;2059478;28;20059;-70
2022/12/13 01:38:37;;;;;;;32.35;18.75;;;-1.70;99.90;;;;;;2060612;28;20034;-69
2022/12/13 01:39:38;;;;;;;34.80;19.90;;;-1.70;99.90;;;;;;2059977;28;20118;-71
2022/12/13 01:41:05;;;;;;;32.90;20.20;;;-1.70;99.90;;;;;;2059163;28;20448;-70
2022/12/13 01:42:06;;;;;;;32.42;19.67;;;-1.70;99.90;;;;;;2059323;28;20122;-70
2022/12/13 01:43:11;;;;;;;34.03;19.02;;;-1.70;99.90;;;;;;2059873;28;20035;-71
2022/12/13 01:45:09;;;;;;;33.60;19.83;;;-1.70;99.90;;;;;;2059610;28;20035;-70
2022/12/13 01:46:10;;;;;;;36.40;20.10;;;-1.70;99.90;;;;;;2065807;28;20074;-70
2022/12/13 01:47:13;;;;;;;33.00;19.23;;;-1.70;99.90;;;;;;2057906;28;20042;-70
2022/12/13 01:48:26;;;;;;;34.72;20.92;;;-1.70;99.90;;;;;;2057339;28;20050;-70
2022/12/13 01:49:27;;;;;;;34.53;20.17;;;-1.70;99.90;;;;;;2065116;28;20042;-70
2022/12/13 01:50:33;;;;;;;33.45;20.00;;;-1.70;99.90;;;;;;2065437;28;20145;-70
2022/12/13 01:51:41;;;;;;;34.90;20.05;;;-1.70;99.90;;;;;;2062772;28;20035;-70
2022/12/13 01:52:44;;;;;;;38.67;21.85;;;-1.70;99.90;;;;;;2057062;28;20103;-70
2022/12/13 01:53:46;;;;;;;38.88;21.48;;;-1.70;99.90;;;;;;2056579;28;20393;-70
2022/12/13 01:54:51;;;;;;;38.55;22.10;;;-1.70;99.90;;;;;;2063617;28;20022;-69
2022/12/13 01:55:56;;;;;;;33.60;20.23;;;-1.70;99.90;;;;;;2056431;28;20038;-68
2022/12/13 01:56:58;;;;;;;35.97;21.15;;;-1.70;99.90;;;;;;2057769;28;20066;-70
2022/12/13 01:58:01;;;;;;;34.30;20.40;;;-1.70;99.90;;;;;;2062996;28;20421;-70
2022/12/13 01:59:05;;;;;;;36.28;21.38;;;-1.70;99.90;;;;;;2056925;28;20027;-70
2022/12/13 02:00:07;;;;;;;33.22;20.55;;;-1.70;99.90;;;;;;2056624;28;20058;-70
2022/12/13 02:01:08;;;;;;;34.13;20.30;;;-1.70;99.90;;;;;;2055123;28;20023;-70
2022/12/13 02:02:12;;;;;;;36.17;20.98;;;-1.70;99.90;;;;;;2062645;28;20559;-70
2022/12/13 02:03:16;;;;;;;34.20;20.52;;;-1.70;99.90;;;;;;2068375;28;20019;-70
2022/12/13 02:04:24;;;;;;;37.92;21.30;;;-1.70;99.90;;;;;;2060021;28;20027;-71
2022/12/13 02:05:35;;;;;;;36.33;20.85;;;-1.70;99.90;;;;;;2057767;28;20038;-70
2022/12/13 02:06:40;;;;;;;34.75;20.42;;;-1.70;99.90;;;;;;2055465;28;20023;-70
2022/12/13 02:07:43;;;;;;;34.13;20.15;;;-1.70;99.90;;;;;;2055810;28;20027;-69
2022/12/13 02:08:45;;;;;;;34.38;20.13;;;-1.70;99.90;;;;;;2056187;28;20026;-69
2022/12/13 02:09:47;;;;;;;34.78;20.75;;;-1.70;99.90;;;;;;2066611;28;20057;-70
2022/12/13 02:10:47;;;;;;;34.95;20.58;;;-1.70;99.90;;;;;;2067765;28;20105;-70
2022/12/13 02:11:49;;;;;;;33.08;19.85;;;-1.70;99.90;;;;;;2059959;28;20082;-70
2022/12/13 02:12:51;;;;;;;32.88;19.85;;;-1.70;99.90;;;;;;2059408;28;20086;-70
2022/12/13 02:13:52;;;;;;;35.30;20.25;;;-1.60;99.90;;;;;;2058181;28;20101;-70
2022/12/13 02:14:53;;;;;;;35.70;20.77;;;-1.60;99.90;;;;;;2058769;28;20097;-69
2022/12/13 02:16:19;;;;;;;35.20;20.17;;;-1.50;99.90;;;;;;2066431;28;20049;-70
2022/12/13 02:17:43;;;;;;;32.10;19.45;;;-1.60;99.90;;;;;;2062573;28;20031;-70
2022/12/13 02:19:28;;;;;;;34.55;20.40;;;-1.60;99.90;;;;;;2058543;28;20041;-70
2022/12/13 02:20:37;;;;;;;34.83;19.88;;;-1.60;99.90;;;;;;2055369;28;20042;-70
2022/12/13 02:21:43;;;;;;;36.07;20.67;;;-1.70;99.90;;;;;;2062420;28;20050;-69
2022/12/13 02:23:10;;;;;;;34.15;20.38;;;-1.70;99.90;;;;;;2061718;28;20272;-70
2022/12/13 02:24:55;;;;;;;34.25;19.48;;;-1.70;99.90;;;;;;2046512;28;20134;-70
2022/12/13 02:26:21;;;;;;;31.88;18.42;;;-1.80;99.90;;;;;;2053968;28;20246;-69
2022/12/13 02:27:49;;;;;;;36.22;19.83;;;-1.80;99.90;;;;;;2049605;28;20050;-69
2022/12/13 02:29:13;;;;;;;31.85;18.80;;;-1.80;99.90;;;;;;2050429;28;20053;-69
2022/12/13 02:30:20;;;;;;;32.00;18.80;;;-1.80;99.90;;;;;;2051788;28;20159;-69
2022/12/13 02:31:36;;;;;;;32.33;18.95;;;-1.90;99.90;;;;;;2047340;28;20039;-70
2022/12/13 02:32:40;;;;;;;33.08;19.42;;;-1.90;99.90;;;;;;2051437;28;20035;-69
2022/12/13 02:33:51;;;;;;;34.15;20.05;;;-1.90;99.90;;;;;;2055012;28;20066;-70
2022/12/13 02:35:19;;;;;;;33.60;19.65;;;-1.90;99.90;;;;;;2047591;28;20082;-70
2022/12/13 02:36:48;;;;;;;33.70;18.70;;;-1.90;99.90;;;;;;2056894;28;20058;-69
2022/12/13 02:38:15;;;;;;;34.67;20.15;;;-1.90;99.90;;;;;;2055518;28;20038;-70
2022/12/13 02:39:18;;;;;;;33.85;19.23;;;-1.90;99.90;;;;;;2059021;28;20038;-70
2022/12/13 02:40:26;;;;;;;33.00;19.73;;;-1.90;99.90;;;;;;2058805;28;20457;-70
2022/12/13 02:41:47;;;;;;;33.85;19.67;;;-1.80;99.90;;;;;;2059764;28;20765;-70
2022/12/13 02:42:56;;;;;;;33.13;19.13;;;-1.80;99.90;;;;;;2058552;28;20072;-69
2022/12/13 02:44:05;;;;;;;33.05;19.08;;;-1.90;99.90;;;;;;2058178;28;20034;-70
2022/12/13 02:45:16;;;;;;;32.97;19.70;;;-1.90;99.90;;;;;;2056320;28;20073;-69
2022/12/13 02:46:20;;;;;;;33.10;19.13;;;-1.80;99.90;;;;;;2055348;28;20030;-69
2022/12/13 02:47:24;;;;;;;34.22;19.77;;;-1.90;99.90;;;;;;2055119;28;20154;-69
2022/12/13 02:48:28;;;;;;;32.05;18.90;;;-1.90;99.90;;;;;;2055273;28;20030;-69
2022/12/13 02:49:33;;;;;;;32.55;18.65;;;-1.90;99.90;;;;;;2057262;28;20039;-69
2022/12/13 02:50:35;;;;;;;33.08;19.48;;;-1.90;99.90;;;;;;2057137;28;20027;-69
2022/12/13 02:51:37;;;;;;;35.90;20.15;;;-1.90;99.90;;;;;;2055128;28;20131;-69
2022/12/13 02:52:41;;;;;;;32.55;18.55;;;-1.90;99.90;;;;;;2057026;28;20513;-69
2022/12/13 02:53:43;;;;;;;33.55;19.20;;;-1.90;99.90;;;;;;2055212;28;20030;-69
2022/12/13 02:54:46;;;;;;;32.95;19.77;;;-1.90;99.90;;;;;;2055251;28;20455;-69
2022/12/13 02:55:47;;;;;;;34.35;19.05;;;-1.90;99.90;;;;;;2055313;28;20027;-69
2022/12/13 02:56:58;;;;;;;32.65;19.08;;;-1.90;99.90;;;;;;2055408;28;20050;-69
2022/12/13 02:57:59;;;;;;;32.22;18.73;;;-1.90;99.90;;;;;;2055262;28;20037;-70
2022/12/13 02:59:04;;;;;;;31.60;19.10;;;-1.90;99.90;;;;;;2054961;28;20023;-69
2022/12/13 03:00:15;;;;;;;30.33;17.85;;;-1.90;99.90;;;;;;2055067;28;20019;-69
2022/12/13 03:01:27;;;;;;;31.52;18.15;;;-1.90;99.90;;;;;;2055343;28;20027;-69
2022/12/13 03:02:37;;;;;;;30.02;17.65;;;-1.90;99.90;;;;;;2054458;28;20033;-69
2022/12/13 03:03:59;;;;;;;29.52;18.10;;;-2.00;99.90;;;;;;2055473;28;20058;-69
2022/12/13 03:06:47;;;;;;;30.27;17.77;;;-2.00;99.90;;;;;;2053436;28;20092;-69
2022/12/13 03:08:04;;;;;;;28.25;15.98;;;-2.10;99.90;;;;;;2057039;28;20026;-70
2022/12/13 03:09:24;;;;;;;29.45;16.90;;;-2.00;99.90;;;;;;2049933;29;20023;-69
2022/12/13 03:10:34;;;;;;;29.33;17.08;;;-2.00;99.90;;;;;;2048967;29;20522;-70
2022/12/13 03:13:36;;;;;;;29.30;16.50;;;-2.10;99.90;;;;;;2050355;29;20031;-69
2022/12/13 03:14:45;;;;;;;28.60;16.10;;;-2.10;99.90;;;;;;2053690;28;20035;-69
2022/12/13 03:15:49;;;;;;;25.85;15.38;;;-2.10;99.90;;;;;;2057226;28;20154;-69
2022/12/13 03:16:51;;;;;;;26.45;15.73;;;-2.00;99.90;;;;;;2056872;28;20034;-69
2022/12/13 03:18:14;;;;;;;26.88;15.75;;;-2.10;99.90;;;;;;2057814;28;20543;-69
2022/12/13 03:19:15;;;;;;;29.45;16.80;;;-2.10;99.90;;;;;;2056981;28;20045;-69
2022/12/13 03:20:21;;;;;;;26.50;16.15;;;-2.10;99.90;;;;;;2057084;28;20065;-72
2022/12/13 03:21:22;;;;;;;25.75;15.70;;;-2.10;99.90;;;;;;2057504;28;20034;-70
2022/12/13 03:22:23;;;;;;;26.73;16.05;;;-2.10;99.90;;;;;;2057791;28;20049;-70
2022/12/13 03:23:24;;;;;;;26.35;16.25;;;-2.10;99.90;;;;;;2057088;28;20054;-69
2022/12/13 03:24:25;;;;;;;28.58;16.35;;;-2.10;99.90;;;;;;2057193;28;20030;-69
2022/12/13 03:25:29;;;;;;;27.80;16.48;;;-2.10;99.90;;;;;;2057267;28;20063;-70
2022/12/13 03:26:32;;;;;;;27.40;16.05;;;-2.10;99.90;;;;;;2057471;28;20701;-69
2022/12/13 03:27:32;;;;;;;25.33;15.38;;;-2.10;99.90;;;;;;2057988;28;20588;-69
2022/12/13 03:28:33;;;;;;;25.98;15.63;;;-2.20;99.90;;;;;;2057794;28;20493;-69
2022/12/13 03:29:34;;;;;;;25.30;15.90;;;-2.20;99.90;;;;;;2057188;28;20721;-70
2022/12/13 03:30:35;;;;;;;25.10;15.60;;;-2.20;99.90;;;;;;2057399;28;20110;-69
2022/12/13 03:31:35;;;;;;;25.63;15.82;;;-2.20;99.90;;;;;;2056265;28;20548;-69
2022/12/13 03:32:36;;;;;;;26.52;16.33;;;-2.20;99.90;;;;;;2055974;28;20145;-69
2022/12/13 03:33:37;;;;;;;25.85;14.73;;;-2.20;99.90;;;;;;2056679;28;20102;-69
2022/12/13 03:34:38;;;;;;;28.50;15.63;;;-2.20;99.90;;;;;;2056409;28;20047;-69
2022/12/13 03:35:41;;;;;;;27.73;16.33;;;-2.10;99.90;;;;;;2056647;28;20034;-69
2022/12/13 03:36:42;;;;;;;25.40;15.00;;;-2.10;99.90;;;;;;2056294;28;20078;-69
2022/12/13 03:37:42;;;;;;;25.17;14.88;;;-2.00;99.90;;;;;;2056587;28;20122;-69
2022/12/13 03:38:45;;;;;;;25.20;15.27;;;-2.00;99.90;;;;;;2056944;28;20037;-69
2022/12/13 03:39:45;;;;;;;25.45;15.27;;;-2.00;99.90;;;;;;2057281;28;20039;-69
2022/12/13 03:40:47;;;;;;;24.70;14.88;;;-2.00;99.90;;;;;;2058511;28;20387;-70
2022/12/13 03:41:48;;;;;;;26.30;15.93;;;-2.00;99.90;;;;;;2058697;28;20805;-69
2022/12/13 03:42:48;;;;;;;25.02;14.93;;;-2.00;99.90;;;;;;2065846;28;20030;-70
2022/12/13 03:43:49;;;;;;;25.65;15.20;;;-2.00;99.90;;;;;;2065905;28;20033;-69
2022/12/13 03:44:50;;;;;;;28.45;16.35;;;-2.10;99.90;;;;;;2057763;28;20031;-69
2022/12/13 03:45:52;;;;;;;25.15;15.43;;;-2.10;99.90;;;;;;2054221;28;20123;-69
2022/12/13 03:46:55;;;;;;;28.10;14.85;;;-2.10;99.90;;;;;;2058381;28;20169;-69
2022/12/13 03:47:55;;;;;;;26.55;15.88;;;-2.10;99.90;;;;;;2048899;29;20502;-70
2022/12/13 03:48:56;;;;;;;26.80;15.43;;;-2.10;99.90;;;;;;2050077;29;20027;-69
2022/12/13 03:49:57;;;;;;;27.90;16.17;;;-2.10;99.90;;;;;;2050469;28;20298;-69
2022/12/13 03:50:57;;;;;;;28.42;16.58;;;-2.10;99.90;;;;;;2052858;28;20031;-69
2022/12/13 03:51:58;;;;;;;27.67;16.00;;;-2.10;99.90;;;;;;2058033;28;20109;-69
2022/12/13 03:53:01;;;;;;;26.90;15.88;;;-2.10;99.90;;;;;;2059101;28;20030;-69
2022/12/13 03:54:01;;;;;;;27.77;16.70;;;-2.10;99.90;;;;;;2058049;28;20030;-69
2022/12/13 03:55:02;;;;;;;25.90;15.57;;;-2.10;99.90;;;;;;2057351;28;20085;-69
2022/12/13 03:56:04;;;;;;;26.02;15.60;;;-2.20;99.90;;;;;;2061450;28;20019;-69
2022/12/13 03:57:05;;;;;;;27.42;16.05;;;-2.10;99.90;;;;;;2060762;28;20033;-69
2022/12/13 03:58:06;;;;;;;27.73;16.35;;;-2.20;99.90;;;;;;2061203;28;20042;-69
2022/12/13 03:59:06;;;;;;;27.70;16.35;;;-2.20;99.90;;;;;;2061641;28;20023;-69
2022/12/13 04:00:08;;;;;;;28.35;16.90;;;-2.20;99.90;;;;;;2069619;28;20038;-69
2022/12/13 04:01:15;;;;;;;27.08;16.35;;;-2.20;99.90;;;;;;2062494;28;20031;-69
2022/12/13 04:02:15;;;;;;;28.75;17.17;;;-2.20;99.90;;;;;;2063154;28;20081;-69
2022/12/13 04:03:16;;;;;;;29.27;17.27;;;-2.30;99.90;;;;;;2062801;28;20039;-69
2022/12/13 04:04:16;;;;;;;28.80;17.38;;;-2.20;99.90;;;;;;2058279;28;20090;-68
2022/12/13 04:05:17;;;;;;;27.38;17.08;;;-2.30;99.90;;;;;;2060079;28;20521;-69
2022/12/13 04:06:18;;;;;;;29.65;17.35;;;-2.30;99.90;;;;;;2053938;29;20027;-68
2022/12/13 04:07:19;;;;;;;27.40;16.65;;;-2.30;99.90;;;;;;2054974;28;20031;-68
2022/12/13 04:08:19;;;;;;;29.85;17.27;;;-2.30;99.90;;;;;;2058970;28;20058;-69
2022/12/13 04:09:20;;;;;;;29.05;17.08;;;-2.30;99.90;;;;;;2054351;28;20092;-73
2022/12/13 04:10:21;;;;;;;30.85;17.30;;;-2.40;99.90;;;;;;2061547;28;20037;-69
2022/12/13 04:14:00;;;;;;;27.85;16.30;;;-2.50;99.90;;;;;;2062648;28;20114;-68
2022/12/13 04:15:01;;;;;;;29.17;16.95;;;-2.60;99.90;;;;;;2062312;28;20038;-68
2022/12/13 04:16:02;;;;;;;29.23;17.15;;;-2.60;99.90;;;;;;2070331;28;20037;-69
2022/12/13 04:17:03;;;;;;;27.45;16.33;;;-2.60;99.90;;;;;;2064342;28;20022;-69
2022/12/13 04:18:04;;;;;;;29.55;16.40;;;-2.70;99.90;;;;;;2058479;28;20026;-69
2022/12/13 04:19:04;;;;;;;28.27;17.17;;;-2.60;99.90;;;;;;2060381;28;20050;-68
2022/12/13 04:20:06;;;;;;;29.92;17.92;;;-2.70;99.90;;;;;;2060752;28;20023;-69
2022/12/13 04:21:06;;;;;;;28.85;17.13;;;-2.70;99.90;;;;;;2056896;28;20057;-68
2022/12/13 04:22:07;;;;;;;29.10;17.17;;;-2.70;99.90;;;;;;2064652;28;20544;-68
2022/12/13 04:23:08;;;;;;;29.67;16.83;;;-2.80;99.90;;;;;;2067129;28;20357;-69
2022/12/13 04:24:08;;;;;;;30.50;17.55;;;-2.80;99.90;;;;;;2058182;28;20026;-68
2022/12/13 04:25:09;;;;;;;29.13;17.15;;;-2.90;99.90;;;;;;2059313;28;20019;-69
2022/12/13 04:26:10;;;;;;;26.85;16.08;;;-2.90;99.90;;;;;;2057548;28;20035;-68
2022/12/13 04:27:10;;;;;;;27.73;16.73;;;-2.90;99.90;;;;;;2062921;28;20037;-68
2022/12/13 04:28:11;;;;;;;30.23;17.73;;;-2.90;99.90;;;;;;2073061;28;20043;-68
2022/12/13 04:29:12;;;;;;;30.42;17.83;;;-3.00;99.90;;;;;;2058507;28;20059;-70
2022/12/13 04:30:13;;;;;;;28.20;16.77;;;-3.00;99.90;;;;;;2057611;28;20450;-69
2022/12/13 04:31:13;;;;;;;29.17;17.35;;;-3.10;99.90;;;;;;2057185;28;20027;-70
2022/12/13 04:32:14;;;;;;;31.42;18.02;;;-3.10;99.90;;;;;;2057029;28;20027;-70
2022/12/13 04:33:14;;;;;;;30.27;18.70;;;-3.10;99.90;;;;;;2056643;28;20034;-69
2022/12/13 04:34:15;;;;;;;32.35;19.05;;;-3.10;99.90;;;;;;2057072;28;20069;-70
2022/12/13 04:35:16;;;;;;;30.52;18.30;;;-3.20;99.90;;;;;;2060028;28;20093;-70
2022/12/13 04:36:24;;;;;;;31.52;17.95;;;-3.20;99.90;;;;;;2068538;28;20038;-70
2022/12/13 04:37:25;;;;;;;32.40;18.85;;;-3.20;99.90;;;;;;2067757;28;20078;-69
2022/12/13 04:38:25;;;;;;;31.00;17.50;;;-3.30;99.90;;;;;;2060835;28;20082;-69
2022/12/13 04:39:26;;;;;;;30.75;18.08;;;-3.30;99.90;;;;;;2060018;28;20050;-70
2022/12/13 04:40:27;;;;;;;31.38;18.08;;;-3.30;99.90;;;;;;2060871;28;20122;-69
2022/12/13 04:41:28;;;;;;;31.38;18.02;;;-3.40;99.90;;;;;;2059850;28;20682;-69
2022/12/13 04:42:28;;;;;;;33.55;19.20;;;-3.40;99.90;;;;;;2058676;28;20078;-70
2022/12/13 04:43:29;;;;;;;32.97;19.05;;;-3.40;99.90;;;;;;2058478;28;20109;-69
2022/12/13 04:44:30;;;;;;;30.02;18.10;;;-3.40;99.90;;;;;;2058511;28;20482;-70
2022/12/13 04:45:31;;;;;;;33.40;18.38;;;-3.40;99.90;;;;;;2059801;28;20119;-70
2022/12/13 04:46:32;;;;;;;34.17;19.77;;;-3.40;99.90;;;;;;2059776;28;20062;-69
2022/12/13 04:47:32;;;;;;;33.50;19.10;;;-3.40;99.90;;;;;;2067651;28;20073;-68
2022/12/13 04:48:33;;;;;;;32.58;18.58;;;-3.40;99.90;;;;;;2060952;28;20420;-69
2022/12/13 04:49:34;;;;;;;35.08;19.20;;;-3.40;99.90;;;;;;2060268;28;20041;-70
2022/12/13 04:50:35;;;;;;;34.95;19.08;;;-3.40;99.90;;;;;;2060868;28;20086;-69
2022/12/13 04:51:36;;;;;;;32.75;18.70;;;-3.40;99.90;;;;;;2060288;28;20391;-69
2022/12/13 04:52:38;;;;;;;33.50;18.88;;;-3.40;99.90;;;;;;2060507;28;20058;-68
2022/12/13 04:53:39;;;;;;;34.45;19.20;;;-3.50;99.90;;;;;;2060661;28;20029;-69
2022/12/13 04:54:39;;;;;;;34.05;19.00;;;-3.40;99.90;;;;;;2060208;28;20045;-69
2022/12/13 04:55:40;;;;;;;36.13;20.80;;;-3.50;99.90;;;;;;2060237;28;20094;-70
2022/12/13 04:56:41;;;;;;;34.25;19.45;;;-3.40;99.90;;;;;;2060955;28;20652;-69
2022/12/13 04:57:41;;;;;;;37.55;20.52;;;-3.50;99.90;;;;;;2061942;28;20030;-69
2022/12/13 04:58:42;;;;;;;33.97;19.95;;;-3.50;99.90;;;;;;2061238;28;20039;-69
2022/12/13 04:59:45;;;;;;;35.15;20.15;;;-3.50;99.90;;;;;;2061560;28;20027;-69
2022/12/13 05:00:46;;;;;;;36.95;20.08;;;-3.50;99.90;;;;;;2059686;28;20031;-69
2022/12/13 05:01:47;;;;;;;35.85;20.25;;;-3.50;99.90;;;;;;2059768;28;20119;-69
2022/12/13 05:02:47;;;;;;;34.53;20.13;;;-3.50;99.90;;;;;;2061356;28;20093;-69
2022/12/13 05:03:48;;;;;;;34.50;19.33;;;-3.50;99.90;;;;;;2061048;28;20140;-69
2022/12/13 05:04:51;;;;;;;39.88;20.95;;;-3.40;99.90;;;;;;2060183;28;20027;-70
2022/12/13 05:05:51;;;;;;;37.65;20.58;;;-3.50;99.90;;;;;;2059178;28;20046;-70
2022/12/13 05:06:52;;;;;;;38.22;20.67;;;-3.50;99.90;;;;;;2059556;28;20038;-70
2022/12/13 05:07:53;;;;;;;37.60;21.05;;;-3.50;99.90;;;;;;2058602;28;20490;-69
2022/12/13 05:08:54;;;;;;;41.95;21.83;;;-3.50;99.90;;;;;;2058581;28;20322;-68
2022/12/13 05:09:55;;;;;;;39.70;21.70;;;-3.40;99.90;;;;;;2058393;28;20027;-69
2022/12/13 05:10:56;;;;;;;39.22;21.33;;;-3.40;99.90;;;;;;2060459;28;20029;-69
2022/12/13 05:11:56;;;;;;;40.78;21.48;;;-3.40;99.90;;;;;;2061333;28;20555;-69
2022/12/13 05:13:01;;;;;;;45.28;23.02;;;-3.40;99.90;;;;;;2061126;28;20037;-69
2022/12/13 05:14:02;;;;;;;42.03;22.90;;;-3.30;99.90;;;;;;2060921;28;20058;-69
2022/12/13 05:15:03;;;;;;;43.67;22.70;;;-3.20;99.90;;;;;;2055291;28;20038;-69
2022/12/13 05:16:06;;;;;;;46.50;23.85;;;-3.20;99.90;;;;;;2061392;28;20445;-69
2022/12/13 05:17:07;;;;;;;44.50;22.48;;;-3.20;99.90;;;;;;2060864;28;20034;-68
2022/12/13 05:18:07;;;;;;;45.30;22.65;;;-3.10;99.90;;;;;;2067773;28;20090;-70
2022/12/13 05:19:08;;;;;;;44.40;23.02;;;-3.10;99.90;;;;;;2067471;28;20038;-70
2022/12/13 05:20:09;;;;;;;45.75;23.67;;;-3.10;99.90;;;;;;2060579;28;20431;-69
2022/12/13 05:21:11;;;;;;;45.80;23.80;;;-3.10;99.90;;;;;;2059223;28;20038;-69
2022/12/13 05:22:14;;;;;;;46.35;23.23;;;-3.10;99.90;;;;;;2059275;28;20022;-69
2022/12/13 05:23:15;;;;;;;48.75;24.10;;;-3.00;99.90;;;;;;2060259;28;20023;-69
2022/12/13 05:24:16;;;;;;;48.35;23.25;;;-2.90;99.90;;;;;;2060006;28;20022;-69
2022/12/13 05:25:16;;;;;;;45.15;23.63;;;-2.90;99.90;;;;;;2068464;28;20141;-70
2022/12/13 05:26:17;;;;;;;47.58;23.80;;;-3.00;99.90;;;;;;2051671;28;20090;-69
2022/12/13 05:27:18;;;;;;;53.45;27.52;;;-3.00;99.90;;;;;;2051257;29;20038;-69
2022/12/13 05:28:19;;;;;;;55.28;27.13;;;-3.00;99.90;;;;;;2056408;28;20066;-70
2022/12/13 05:29:19;;;;;;;49.25;25.38;;;-3.10;99.90;;;;;;2058383;28;20111;-70